Impacts METAR Board
IDs:

KDFW - Dallas-Ft Worth Intl, TX, US

Updated at: 0800 UTC 19 Jun 2018
Potential Impact None Slight Moderate High
Time 18/20Z 18/21Z 18/22Z 18/23Z 19/00Z 19/01Z 19/02Z 19/03Z 19/04Z 19/05Z 19/06Z 19/07Z 19/08Z
Temp89 88 91 90 89 85 82 81 80 78 77 77 76
Dewpt69 69 68 69 69 70 69 71 69 69 70 70 70
Altim29.96 29.94 29.92 29.90 29.90 29.90 29.93 29.95 29.95 29.97 29.95 29.94 29.94
VIS10 10 10 10 10 10 10 10 10 10 10 10 10
CIG70 60 70 -- 65 -- -- -- -- 28 21 20 18
CoverBKNBKNBKNSCTBKNFEWFEWFEWFEWBKNBKNBKNOVC
FltCatVFRVFRVFRVFRVFRVFRVFRVFRVFRMVFRMVFRMVFRMVFR
WX--------------------------
WDir100110120130110130130130130140140140160
WSpd13 11 15 13 10 19 15 12 11 14 13 15 13
WGst-- -- -- -- -- 26 -- 19 -- -- -- -- --
Raw hourly METARs
KDFW 181953Z 10013KT 10SM FEW038 SCT060 BKN070 BKN300 32/21 A2996 RMK AO2 SLP134 T03170206
KDFW 182053Z 11011KT 10SM SCT050 BKN060TCU BKN300 31/21 A2994 RMK AO2 SLP127 TCU ALQDS T03110206 58018
KDFW 182153Z 12015KT 10SM SCT046 BKN070TCU 33/20 A2992 RMK AO2 SLP123 TCU ALQDS T03280200
KDFW 182253Z 13013KT 10SM FEW050 SCT080TCU 32/21 A2990 RMK AO2 SLP117 TCU ALQDS T03220206
KDFW 182353Z 11010KT 10SM SCT050 BKN065TCU BKN085 32/21 A2990 RMK AO2 SLP115 TCU ALQDS SHRA DSNT E T03170206 10333 20306 56012
KDFW 190053Z 13019G26KT 10SM FEW047 FEW085 29/21 A2990 RMK AO2 PK WND 12026/0046 SLP117 T02940211
KDFW 190153Z 13015KT 10SM FEW047 FEW300 28/21 A2993 RMK AO2 PK WND 14026/0108 SLP128 T02780206
KDFW 190253Z 13012G19KT 10SM FEW030 FEW300 27/22 A2995 RMK AO2 SLP132 T02720217 53016
KDFW 190353Z 13011KT 10SM FEW029 27/21 A2995 RMK AO2 SLP135 T02670206
KDFW 190453Z 14014KT 10SM BKN028 BKN300 26/21 A2997 RMK AO2 SLP138 T02560206
KDFW 190553Z 14013KT 10SM BKN021 BKN028 BKN039 25/21 A2995 RMK AO2 SLP133 T02500211 10317 20250 403330250 50002
KDFW 190653Z 14015KT 10SM BKN020 BKN026 25/21 A2994 RMK AO2 SLP127 T02500211
KDFW 190753Z 16013KT 10SM BKN018 OVC026 24/21 A2994 RMK AO2 SLP128 T02440211



Page loaded:  08:53 UTC  |   01:53 AM Pacific  |   02:53 AM Mountain  |   03:53 AM Central  |   04:53 AM Eastern

 

ADVISORIES

FORECASTS

FORECASTS

OBSERVATIONS

USER TOOLS

ABOUT US